Cainsville, Missouri
Current Conditions -  °F | °C
As of 1:53 AM on Wednesday 26 Nov 2014 (Local Time) from KLWD Reporting Station
Light Snow Light Snow  
Wind Chill: 21°   Ceiling: 1800
Heat Index: 30°   Visibility: 1.5mi
Dew Point: 24°   Wind: 10mph
Humidity: 79%   Direction: 170°S
Pressure: 29.96"   Gusts: NA
Location:  40.44°N, 93.78°W
Report Text: KLWD 260753Z AUTO 17009KT 1 1/2SM -SN OVC018 M01/M04 A2996 RMK AO2 UPB34E35SNB26E34B35 SLP155 P0000 T10111044
Loading
Personal Weather Stations






























Interactive Weather Map New forecast layout! Learn more

10-Day Weather Forecast

Advertisements
Track Severe Weather on mobile